Time;durP1;ratioP1;P1;durP2;ratioP2;P2;SDS_P1;SDS_P2;PMS_P1;PMS_P2;Temp;Humidity;BMP_temperature;BMP_pressure;BME280_temperature;BME280_humidity;BME280_pressure;Samples;Min_cycle;Max_cycle;Signal;HPM_P1;HPM_P2
2022/05/05 00:03:01;;;;;;;;;;;12.20;99.90;;;;;;10287155;28;84089;-50
2022/05/05 00:08:02;;;;;;;;;;;12.10;99.90;;;;;;10248540;28;84157;-50
2022/05/05 00:18:21;;;;;;;;;;;12.10;99.90;;;;;;10256925;28;84779;-51
2022/05/05 00:23:22;;;;;;;;;;;12.20;99.90;;;;;;10287168;28;84225;-48
2022/05/05 00:28:23;;;;;;;;;;;12.10;99.90;;;;;;10268252;28;85040;-50
2022/05/05 00:33:23;;;;;;;;;;;12.10;99.90;;;;;;10284965;28;84216;-52
2022/05/05 00:38:24;;;;;;;;;;;12.00;99.90;;;;;;10286933;28;84118;-54
2022/05/05 00:43:24;;;;;;;;;;;12.10;99.90;;;;;;10285320;28;85324;-54
2022/05/05 00:48:28;;;;;;;;;;;12.10;99.90;;;;;;10286352;28;85070;-50
2022/05/05 00:53:28;;;;;;;;;;;12.10;99.90;;;;;;10268147;28;84259;-51
2022/05/05 00:58:29;;;;;;;;;;;12.10;99.90;;;;;;10281614;28;84418;-50
2022/05/05 01:03:33;;;;;;;;;;;12.10;99.90;;;;;;10244398;28;84299;-51
2022/05/05 01:08:34;;;;;;;;;;;12.00;99.90;;;;;;10244772;28;84907;-55
2022/05/05 01:13:38;;;;;;;;;;;12.00;99.90;;;;;;10253451;28;84953;-54
2022/05/05 01:18:39;;;;;;;;;;;12.00;99.90;;;;;;10284958;28;84230;-51
2022/05/05 01:23:39;;;;;;;;;;;12.00;99.90;;;;;;10291584;28;84951;-50
2022/05/05 01:28:43;;;;;;;;;;;12.00;99.90;;;;;;10289807;28;84251;-52
2022/05/05 01:33:43;;;;;;;;;;;11.90;1.00;;;;;;10291228;28;84302;-50
2022/05/05 01:38:44;;;;;;;;;;;11.80;99.90;;;;;;10291152;28;84023;-55
2022/05/05 01:43:45;;;;;;;;;;;11.70;1.00;;;;;;10290204;28;84031;-52
2022/05/05 01:48:45;;;;;;;;;;;11.60;1.00;;;;;;10291294;28;84052;-55
2022/05/05 01:53:46;;;;;;;;;;;11.70;1.00;;;;;;10290678;28;84275;-53
2022/05/05 01:58:46;;;;;;;;;;;11.60;1.00;;;;;;10290019;28;84909;-53
2022/05/05 02:03:47;;;;;;;;;;;11.50;1.00;;;;;;10273235;28;84262;-50
2022/05/05 02:08:48;;;;;;;;;;;11.40;1.00;;;;;;10272462;28;85108;-50
2022/05/05 02:13:49;;;;;;;;;;;11.30;1.00;;;;;;10289945;28;84879;-51
2022/05/05 02:18:50;;;;;;;;;;;11.20;1.00;;;;;;10290449;28;84161;-52
2022/05/05 02:23:50;;;;;;;;;;;11.20;1.00;;;;;;10289652;28;92878;-49
2022/05/05 02:28:51;;;;;;;;;;;11.10;1.00;;;;;;10289863;28;90304;-51
2022/05/05 02:33:51;;;;;;;;;;;11.10;1.00;;;;;;10260913;28;85216;-49
2022/05/05 02:38:52;;;;;;;;;;;11.10;1.00;;;;;;10248799;28;84825;-51
2022/05/05 02:43:53;;;;;;;;;;;11.20;1.00;;;;;;10260163;22;84730;-54
2022/05/05 02:48:53;;;;;;;;;;;11.20;1.00;;;;;;10240604;28;101479;-54
2022/05/05 02:59:13;;;;;;;;;;;11.30;1.00;;;;;;10242303;28;84788;-54
2022/05/05 03:04:13;;;;;;;;;;;11.30;1.00;;;;;;10246976;28;84884;-53
2022/05/05 03:09:14;;;;;;;;;;;11.30;1.00;;;;;;10248419;28;84914;-53
2022/05/05 03:14:14;;;;;;;;;;;11.30;1.00;;;;;;10246801;28;84946;-54
2022/05/05 03:19:15;;;;;;;;;;;11.30;1.00;;;;;;10236488;28;84337;-55
2022/05/05 03:24:15;;;;;;;;;;;11.30;1.00;;;;;;10247109;28;84232;-56
2022/05/05 03:29:16;;;;;;;;;;;11.30;1.00;;;;;;10247688;28;84444;-55
2022/05/05 03:34:16;;;;;;;;;;;11.30;1.00;;;;;;10229107;28;85000;-55
2022/05/05 03:39:17;;;;;;;;;;;11.30;1.00;;;;;;10247188;28;91921;-56
2022/05/05 03:44:17;;;;;;;;;;;11.30;1.00;;;;;;10246010;28;84324;-56
2022/05/05 03:49:18;;;;;;;;;;;11.30;1.00;;;;;;10245922;28;84452;-56
2022/05/05 03:54:18;;;;;;;;;;;11.30;1.00;;;;;;10246454;28;84462;-56
2022/05/05 03:59:19;;;;;;;;;;;11.30;1.00;;;;;;10246584;28;88601;-55
2022/05/05 04:04:19;;;;;;;;;;;11.20;1.00;;;;;;10245948;28;84057;-56
2022/05/05 04:09:20;;;;;;;;;;;11.20;1.00;;;;;;10246671;28;84874;-53
2022/05/05 04:14:20;;;;;;;;;;;11.20;1.00;;;;;;10228412;28;84932;-57
2022/05/05 04:19:21;;;;;;;;;;;11.20;1.00;;;;;;10246498;28;88581;-56
2022/05/05 04:24:21;;;;;;;;;;;11.20;1.00;;;;;;10228333;28;84997;-54
2022/05/05 04:29:22;;;;;;;;;;;11.20;1.00;;;;;;10241442;28;85549;-55
2022/05/05 04:34:22;;;;;;;;;;;11.30;1.00;;;;;;10244116;28;84168;-54
2022/05/05 04:39:23;;;;;;;;;;;11.30;1.00;;;;;;10226722;28;84974;-56
2022/05/05 04:44:23;;;;;;;;;;;11.40;1.00;;;;;;10242961;28;94647;-57
2022/05/05 04:49:24;;;;;;;;;;;11.40;1.00;;;;;;10240732;28;97509;-57
2022/05/05 04:54:24;;;;;;;;;;;11.60;1.00;;;;;;10242195;28;95884;-54
2022/05/05 04:59:25;;;;;;;;;;;11.60;1.00;;;;;;10243774;28;84255;-54
2022/05/05 05:04:25;;;;;;;;;;;11.60;1.00;;;;;;10242929;28;93478;-58
2022/05/05 05:09:26;;;;;;;;;;;11.70;1.00;;;;;;10243886;28;84239;-53
2022/05/05 05:14:26;;;;;;;;;;;11.60;1.00;;;;;;10245735;28;84942;-53
2022/05/05 05:19:27;;;;;;;;;;;11.70;1.00;;;;;;10241764;28;84762;-54
2022/05/05 05:24:28;;;;;;;;;;;11.70;1.00;;;;;;10225769;28;85072;-56
2022/05/05 05:29:28;;;;;;;;;;;11.80;1.00;;;;;;10246354;28;85062;-56
2022/05/05 05:34:29;;;;;;;;;;;12.00;1.00;;;;;;10235741;28;84801;-55
2022/05/05 05:39:30;;;;;;;;;;;12.10;1.00;;;;;;10243059;28;84264;-56
2022/05/05 05:44:30;;;;;;;;;;;12.10;1.00;;;;;;10275453;28;84131;-55
2022/05/05 05:49:31;;;;;;;;;;;12.20;1.00;;;;;;10283915;28;84134;-53
2022/05/05 05:54:31;;;;;;;;;;;12.20;1.00;;;;;;10277767;28;84910;-55
2022/05/05 05:59:32;;;;;;;;;;;12.40;1.00;;;;;;10240099;28;84858;-53
2022/05/05 06:04:33;;;;;;;;;;;12.50;1.00;;;;;;10236973;28;85066;-54
2022/05/05 06:09:33;;;;;;;;;;;12.50;1.00;;;;;;10248667;28;84938;-49
2022/05/05 06:14:34;;;;;;;;;;;12.50;1.00;;;;;;10249535;28;84963;-53
2022/05/05 06:19:34;;;;;;;;;;;12.40;1.00;;;;;;10249311;28;84428;-49
2022/05/05 06:24:35;;;;;;;;;;;12.50;1.00;;;;;;10249250;28;84951;-53
2022/05/05 06:29:36;;;;;;;;;;;12.60;1.00;;;;;;10248041;28;84598;-64
2022/05/05 06:34:36;;;;;;;;;;;12.70;1.00;;;;;;10248974;28;85300;-64
2022/05/05 06:39:37;;;;;;;;;;;12.80;1.00;;;;;;10248104;28;84245;-64
2022/05/05 06:44:37;;;;;;;;;;;13.00;99.90;;;;;;10247434;28;84935;-64
2022/05/05 06:49:38;;;;;;;;;;;13.20;99.90;;;;;;10247439;28;84102;-64
2022/05/05 06:54:38;;;;;;;;;;;13.20;99.90;;;;;;10248374;28;92273;-64
2022/05/05 06:59:39;;;;;;;;;;;13.40;99.90;;;;;;10247786;28;84919;-64
2022/05/05 07:15:17;;;;;;;;;;;14.40;1.00;;;;;;10229843;28;85094;-65
2022/05/05 07:20:18;;;;;;;;;;;14.80;10.90;;;;;;10246741;28;84831;-64
2022/05/05 07:25:19;;;;;;;;;;;15.50;1.00;;;;;;10248662;28;84035;-64
2022/05/05 07:30:20;;;;;;;;;;;16.20;99.90;;;;;;10248445;28;84360;-64
2022/05/05 07:35:21;;;;;;;;;;;16.60;1.00;;;;;;10249932;28;84708;-62
2022/05/05 07:40:21;;;;;;;;;;;17.30;1.00;;;;;;10247824;28;84332;-61
2022/05/05 07:45:22;;;;;;;;;;;17.90;1.00;;;;;;10248193;28;84124;-60
2022/05/05 07:50:23;;;;;;;;;;;18.20;99.90;;;;;;10246636;28;84784;-61
2022/05/05 07:55:23;;;;;;;;;;;18.70;99.90;;;;;;10247824;28;84869;-62
2022/05/05 08:00:24;;;;;;;;;;;18.70;99.90;;;;;;10247242;28;84186;-61
2022/05/05 08:05:25;;;;;;;;;;;18.50;99.90;;;;;;10245971;28;84268;-62
2022/05/05 08:10:28;;;;;;;;;;;18.60;99.90;;;;;;10246649;28;84108;-65
2022/05/05 08:15:29;;;;;;;;;;;18.20;99.90;;;;;;10246761;28;85258;-62
2022/05/05 08:20:30;;;;;;;;;;;18.30;99.90;;;;;;10246347;28;84663;-62
2022/05/05 08:30:50;;;;;;;;;;;19.30;1.00;;;;;;10245068;28;84257;-62
2022/05/05 08:35:50;;;;;;;;;;;20.00;1.00;;;;;;10227989;28;86399;-62
2022/05/05 08:45:57;;;;;;;;;;;21.20;99.90;;;;;;10204691;28;85003;-61
2022/05/05 08:51:00;;;;;;;;;;;21.70;1.00;;;;;;10189517;28;84809;-62
2022/05/05 08:56:01;;;;;;;;;;;21.70;1.00;;;;;;10172518;28;86825;-63
2022/05/05 09:01:02;;;;;;;;;;;22.00;1.00;;;;;;10205530;28;84909;-63
2022/05/05 09:06:04;;;;;;;;;;;22.90;1.00;;;;;;10206373;28;84193;-63
2022/05/05 09:11:06;;;;;;;;;;;22.80;99.90;;;;;;10173459;28;84312;-60
2022/05/05 09:16:06;;;;;;;;;;;23.70;99.90;;;;;;10205174;28;85017;-54
2022/05/05 09:21:07;;;;;;;;;;;23.90;99.90;;;;;;10205293;28;84346;-59
2022/05/05 09:26:08;;;;;;;;;;;23.70;99.90;;;;;;10188148;28;84877;-61
2022/05/05 09:31:09;;;;;;;;;;;23.90;99.90;;;;;;10203896;28;84776;-58
2022/05/05 09:36:13;;;;;;;;;;;25.20;99.90;;;;;;10187599;28;84271;-60
2022/05/05 09:41:13;;;;;;;;;;;24.90;44.90;;;;;;10206690;28;84572;-56
2022/05/05 09:46:23;;;;;;;;;;;24.40;1.00;;;;;;10212283;28;84440;-56
2022/05/05 09:51:23;;;;;;;;;;;24.40;1.00;;;;;;10212034;28;84728;-56
2022/05/05 10:01:49;;;;;;;;;;;25.40;1.00;;;;;;10211435;28;85087;-55
2022/05/05 10:06:49;;;;;;;;;;;26.00;1.00;;;;;;10211366;28;86296;-51
2022/05/05 10:11:50;;;;;;;;;;;26.70;1.00;;;;;;10212893;28;84220;-55
2022/05/05 10:16:51;;;;;;;;;;;27.20;1.00;;;;;;10211593;28;84799;-55
2022/05/05 10:21:59;;;;;;;;;;;27.20;1.00;;;;;;10211800;28;84221;-53
2022/05/05 10:27:00;;;;;;;;;;;27.10;1.00;;;;;;10211228;28;85007;-53
2022/05/05 10:32:11;;;;;;;;;;;26.80;1.00;;;;;;10209247;28;86527;-56
2022/05/05 10:37:13;;;;;;;;;;;26.40;1.00;;;;;;10207392;28;84322;-59
2022/05/05 10:42:14;;;;;;;;;;;26.20;1.00;;;;;;10208794;28;84266;-53
2022/05/05 10:47:16;;;;;;;;;;;26.70;1.00;;;;;;10208208;28;85622;-45
2022/05/05 10:52:16;;;;;;;;;;;27.10;1.00;;;;;;10190725;28;85704;-46
2022/05/05 10:57:25;;;;;;;;;;;27.70;1.00;;;;;;10209458;28;84037;-47
2022/05/05 11:02:29;;;;;;;;;;;26.30;1.00;;;;;;10204243;28;85294;-47
2022/05/05 11:07:35;;;;;;;;;;;25.70;1.00;;;;;;10208997;28;87331;-50
2022/05/05 11:12:36;;;;;;;;;;;26.50;1.00;;;;;;10204493;28;86352;-53
2022/05/05 11:23:22;;;;;;;;;;;27.50;1.00;;;;;;10191388;28;85272;-58
2022/05/05 11:28:26;;;;;;;;;;;27.80;1.00;;;;;;10191036;28;85547;-54
2022/05/05 11:33:27;;;;;;;;;;;25.90;1.00;;;;;;10190319;28;84156;-52
2022/05/05 11:38:28;;;;;;;;;;;24.30;1.00;;;;;;10208110;28;86497;-48
2022/05/05 11:48:55;;;;;;;;;;;22.30;1.00;;;;;;10208343;28;84642;-61
2022/05/05 11:53:59;;;;;;;;;;;22.00;1.00;;;;;;10208386;28;84818;-61
2022/05/05 12:04:29;;;;;;;;;;;22.20;1.00;;;;;;10208712;28;84818;-61
2022/05/05 12:09:30;;;;;;;;;;;22.60;1.00;;;;;;10208096;28;84925;-61
2022/05/05 12:14:39;;;;;;;;;;;22.30;1.00;;;;;;10190676;28;84975;-60
2022/05/05 12:19:45;;;;;;;;;;;23.70;1.00;;;;;;10205906;28;84680;-61
2022/05/05 12:24:46;;;;;;;;;;;23.80;1.00;;;;;;10208442;28;84831;-60
2022/05/05 12:29:47;;;;;;;;;;;22.90;1.00;;;;;;10189696;28;84904;-58
2022/05/05 12:34:47;;;;;;;;;;;23.40;1.00;;;;;;10191589;28;84927;-61
2022/05/05 12:39:56;;;;;;;;;;;24.70;1.00;;;;;;10195641;28;84136;-60
2022/05/05 12:44:58;;;;;;;;;;;24.70;1.00;;;;;;10193540;28;85612;-60
2022/05/05 12:49:59;;;;;;;;;;;25.60;1.00;;;;;;10191196;28;84111;-61
2022/05/05 13:00:20;;;;;;;;;;;25.70;1.00;;;;;;10206008;28;85804;-64
2022/05/05 13:05:25;;;;;;;;;;;26.10;1.00;;;;;;10208333;28;84955;-55
2022/05/05 13:10:25;;;;;;;;;;;26.60;1.00;;;;;;10210330;28;84804;-60
2022/05/05 13:15:26;;;;;;;;;;;27.40;1.00;;;;;;10210007;28;85267;-56
2022/05/05 13:20:26;;;;;;;;;;;27.20;1.00;;;;;;10217243;28;84223;-57
2022/05/05 13:25:28;;;;;;;;;;;28.00;1.00;;;;;;10214784;28;84799;-61
2022/05/05 13:30:28;;;;;;;;;;;27.50;1.00;;;;;;10213263;28;85027;-63
2022/05/05 13:35:29;;;;;;;;;;;27.40;1.00;;;;;;10213731;28;84945;-67
2022/05/05 13:40:30;;;;;;;;;;;28.00;1.00;;;;;;10201719;28;85476;-64
2022/05/05 13:45:31;;;;;;;;;;;28.00;1.00;;;;;;10187902;28;84002;-64
2022/05/05 13:50:34;;;;;;;;;;;26.90;1.00;;;;;;10209427;28;84150;-62
2022/05/05 13:55:35;;;;;;;;;;;25.90;1.00;;;;;;10208084;28;84781;-63
2022/05/05 14:00:36;;;;;;;;;;;24.80;1.00;;;;;;10205079;28;87052;-66
2022/05/05 14:05:36;;;;;;;;;;;24.10;1.00;;;;;;10193733;28;86216;-57
2022/05/05 14:15:56;;;;;;;;;;;22.80;1.00;;;;;;10212298;28;84118;-58
2022/05/05 14:20:57;;;;;;;;;;;23.00;1.00;;;;;;10212366;28;84359;-59
2022/05/05 14:25:59;;;;;;;;;;;22.70;1.00;;;;;;10211006;28;84757;-59
2022/05/05 14:30:59;;;;;;;;;;;22.60;1.00;;;;;;10210084;28;84888;-49
2022/05/05 14:36:00;;;;;;;;;;;22.00;1.00;;;;;;10193173;28;90655;-56
2022/05/05 14:46:39;;;;;;;;;;;22.00;1.00;;;;;;10209455;28;84079;-52
2022/05/05 14:51:40;;;;;;;;;;;21.60;1.00;;;;;;10210742;28;84289;-56
2022/05/05 14:56:40;;;;;;;;;;;21.50;1.00;;;;;;10193437;28;85882;-54
2022/05/05 15:01:41;;;;;;;;;;;21.30;1.00;;;;;;10203061;28;84577;-50
2022/05/05 15:06:41;;;;;;;;;;;21.30;1.00;;;;;;10204098;28;84154;-50
2022/05/05 15:11:42;;;;;;;;;;;21.20;1.00;;;;;;10200181;28;84248;-45
2022/05/05 15:16:42;;;;;;;;;;;21.30;1.00;;;;;;10196765;28;86402;-47
2022/05/05 15:21:43;;;;;;;;;;;21.20;1.00;;;;;;10204079;28;85284;-45
2022/05/05 15:26:44;;;;;;;;;;;21.30;1.00;;;;;;10199946;28;84878;-44
2022/05/05 15:31:44;;;;;;;;;;;21.40;1.00;;;;;;10197425;28;85082;-45
2022/05/05 15:36:45;;;;;;;;;;;21.40;1.00;;;;;;10203024;28;84877;-51
2022/05/05 15:41:46;;;;;;;;;;;21.30;1.00;;;;;;10199718;28;85471;-46
2022/05/05 15:46:47;;;;;;;;;;;21.40;1.00;;;;;;10178556;28;85633;-45
2022/05/05 15:51:47;;;;;;;;;;;21.50;1.00;;;;;;10207272;28;84291;-47
2022/05/05 15:56:48;;;;;;;;;;;21.30;1.00;;;;;;10202480;28;84181;-45
2022/05/05 16:01:48;;;;;;;;;;;21.20;1.00;;;;;;10219741;28;86615;-45
2022/05/05 16:06:49;;;;;;;;;;;21.00;1.00;;;;;;10206398;28;84576;-45
2022/05/05 16:11:50;;;;;;;;;;;21.00;1.00;;;;;;10205521;28;84833;-44
2022/05/05 16:16:50;;;;;;;;;;;21.10;1.00;;;;;;10205392;28;84072;-45
2022/05/05 16:21:51;;;;;;;;;;;20.80;1.00;;;;;;10205308;28;84231;-44
2022/05/05 16:32:11;;;;;;;;;;;20.20;1.00;;;;;;10204585;28;85802;-45
2022/05/05 16:37:12;;;;;;;;;;;20.20;1.00;;;;;;10205424;28;84909;-46
2022/05/05 16:42:12;;;;;;;;;;;20.30;1.00;;;;;;10197047;28;96188;-45
2022/05/05 16:47:13;;;;;;;;;;;20.40;1.00;;;;;;10204217;28;84096;-46
2022/05/05 16:52:13;;;;;;;;;;;20.30;1.00;;;;;;10199186;28;84250;-45
2022/05/05 16:57:14;;;;;;;;;;;20.20;1.00;;;;;;10183725;28;84176;-45
2022/05/05 17:02:16;;;;;;;;;;;20.10;1.00;;;;;;10173657;28;84934;-44
2022/05/05 17:07:17;;;;;;;;;;;19.90;1.00;;;;;;10203689;28;84211;-45
2022/05/05 17:12:17;;;;;;;;;;;19.80;1.00;;;;;;10206505;28;85176;-45
2022/05/05 17:17:18;;;;;;;;;;;19.80;1.00;;;;;;10202276;28;85012;-45
2022/05/05 17:22:18;;;;;;;;;;;19.70;1.00;;;;;;10201912;28;84856;-45
2022/05/05 17:27:19;;;;;;;;;;;19.50;1.00;;;;;;10204489;28;84150;-47
2022/05/05 17:32:19;;;;;;;;;;;19.40;1.00;;;;;;10201456;28;84285;-45
2022/05/05 17:37:20;;;;;;;;;;;19.40;1.00;;;;;;10203968;28;84944;-44
2022/05/05 17:42:20;;;;;;;;;;;19.40;1.00;;;;;;10200000;28;84220;-44
2022/05/05 17:52:40;;;;;;;;;;;19.20;1.00;;;;;;10204163;28;84067;-48
2022/05/05 17:57:42;;;;;;;;;;;19.10;1.00;;;;;;10188065;28;84040;-45
2022/05/05 18:02:43;;;;;;;;;;;19.00;1.00;;;;;;10167282;28;84053;-45
2022/05/05 18:07:43;;;;;;;;;;;19.00;1.00;;;;;;10202744;28;84911;-45
2022/05/05 18:12:45;;;;;;;;;;;19.00;1.00;;;;;;10205829;28;84776;-43
2022/05/05 18:17:46;;;;;;;;;;;18.90;1.00;;;;;;10207562;28;84314;-48
2022/05/05 18:22:47;;;;;;;;;;;18.80;1.00;;;;;;10206753;28;84284;-45
2022/05/05 18:27:47;;;;;;;;;;;18.70;1.00;;;;;;10207031;28;84235;-45
2022/05/05 18:32:51;;;;;;;;;;;18.70;1.00;;;;;;10208607;28;84203;-46
2022/05/05 18:37:52;;;;;;;;;;;18.60;1.00;;;;;;10200743;28;86146;-45
2022/05/05 18:42:52;;;;;;;;;;;18.60;1.00;;;;;;10193513;28;84969;-47
2022/05/05 18:47:53;;;;;;;;;;;18.40;1.00;;;;;;10206378;28;84902;-45
2022/05/05 18:52:53;;;;;;;;;;;18.40;1.00;;;;;;10200331;28;84608;-45
2022/05/05 18:57:59;;;;;;;;;;;18.20;1.00;;;;;;10187711;28;84937;-44
2022/05/05 19:02:59;;;;;;;;;;;18.20;1.00;;;;;;10171736;28;84857;-46
2022/05/05 19:08:00;;;;;;;;;;;18.10;1.00;;;;;;10195305;28;88637;-46
2022/05/05 19:13:01;;;;;;;;;;;18.00;1.00;;;;;;10196422;28;84828;-46
2022/05/05 19:18:02;;;;;;;;;;;17.90;1.00;;;;;;10191830;28;86285;-45
2022/05/05 19:23:03;;;;;;;;;;;17.80;1.00;;;;;;10182113;28;84224;-46
2022/05/05 19:28:03;;;;;;;;;;;17.60;6.50;;;;;;10168182;28;84708;-46
2022/05/05 19:33:04;;;;;;;;;;;17.50;99.90;;;;;;10197060;28;84520;-56
2022/05/05 19:38:05;;;;;;;;;;;17.30;99.90;;;;;;10196416;28;84843;-45
2022/05/05 19:43:05;;;;;;;;;;;17.30;99.90;;;;;;10199047;28;84823;-46
2022/05/05 19:48:07;;;;;;;;;;;17.20;1.00;;;;;;10205478;28;84191;-44
2022/05/05 19:53:08;;;;;;;;;;;17.10;1.00;;;;;;10204375;28;84975;-45
2022/05/05 20:03:27;;;;;;;;;;;16.90;99.90;;;;;;10202101;28;84242;-43
2022/05/05 20:08:28;;;;;;;;;;;16.70;1.00;;;;;;10198161;28;84356;-43
2022/05/05 20:13:34;;;;;;;;;;;16.60;99.90;;;;;;10189844;28;85807;-48
2022/05/05 20:18:35;;;;;;;;;;;16.60;1.00;;;;;;10207455;28;85204;-45
2022/05/05 20:23:37;;;;;;;;;;;16.50;99.90;;;;;;10207882;28;84933;-43
2022/05/05 20:28:38;;;;;;;;;;;16.30;1.00;;;;;;10204162;28;84148;-44
2022/05/05 20:33:38;;;;;;;;;;;16.30;1.00;;;;;;10155099;28;85833;-46
2022/05/05 20:38:39;;;;;;;;;;;16.10;99.90;;;;;;10202668;28;86823;-45
2022/05/05 20:43:39;;;;;;;;;;;16.00;1.00;;;;;;10241689;22;86126;-48
2022/05/05 20:48:40;;;;;;;;;;;15.90;99.90;;;;;;10270137;28;85207;-48
2022/05/05 20:53:41;;;;;;;;;;;15.80;17.70;;;;;;10286992;28;86767;-48
2022/05/05 20:58:41;;;;;;;;;;;15.70;1.00;;;;;;10288068;28;84840;-51
2022/05/05 21:03:42;;;;;;;;;;;15.60;1.00;;;;;;10270287;28;87004;-48
2022/05/05 21:08:42;;;;;;;;;;;15.50;1.00;;;;;;10288783;28;84879;-50
2022/05/05 21:13:43;;;;;;;;;;;15.40;99.90;;;;;;10288013;28;84827;-51
2022/05/05 21:18:44;;;;;;;;;;;15.30;1.00;;;;;;10269536;28;84947;-45
2022/05/05 21:29:04;;;;;;;;;;;15.20;1.00;;;;;;10286214;28;84287;-47
2022/05/05 21:34:04;;;;;;;;;;;15.00;99.90;;;;;;10285854;28;84698;-51
2022/05/05 21:39:05;;;;;;;;;;;15.00;99.90;;;;;;10273909;28;86313;-47
2022/05/05 21:44:06;;;;;;;;;;;14.90;1.00;;;;;;10292128;28;84899;-53
2022/05/05 21:49:06;;;;;;;;;;;14.90;1.00;;;;;;10275544;28;84751;-47
2022/05/05 21:54:07;;;;;;;;;;;14.80;1.00;;;;;;10292205;28;85788;-48
2022/05/05 21:59:08;;;;;;;;;;;14.70;1.00;;;;;;10291830;28;85798;-50
2022/05/05 22:04:11;;;;;;;;;;;14.60;1.00;;;;;;10292066;28;84143;-52
2022/05/05 22:09:12;;;;;;;;;;;14.60;1.00;;;;;;10274606;28;86785;-49
2022/05/05 22:14:12;;;;;;;;;;;14.50;1.00;;;;;;10273793;28;84885;-51
2022/05/05 22:19:13;;;;;;;;;;;14.40;1.00;;;;;;10274837;28;86166;-48
2022/05/05 22:24:15;;;;;;;;;;;14.20;77.40;;;;;;10273593;28;85047;-48
2022/05/05 22:29:16;;;;;;;;;;;14.20;99.90;;;;;;10274151;28;85904;-48
2022/05/05 22:34:17;;;;;;;;;;;14.20;99.90;;;;;;10291375;28;84306;-48
2022/05/05 22:39:18;;;;;;;;;;;14.10;99.90;;;;;;10258148;28;85019;-50
2022/05/05 22:44:19;;;;;;;;;;;14.00;99.90;;;;;;10290940;28;84079;-50
2022/05/05 22:54:46;;;;;;;;;;;13.80;1.00;;;;;;10291189;28;86805;-48
2022/05/05 22:59:47;;;;;;;;;;;13.70;1.00;;;;;;10291613;28;85378;-49
2022/05/05 23:04:48;;;;;;;;;;;13.60;1.00;;;;;;10290841;28;84328;-48
2022/05/05 23:09:48;;;;;;;;;;;13.50;1.00;;;;;;10272717;28;86726;-48
2022/05/05 23:14:49;;;;;;;;;;;13.40;1.00;;;;;;10256496;28;88932;-46
2022/05/05 23:19:50;;;;;;;;;;;13.40;1.00;;;;;;10289463;28;85012;-48
2022/05/05 23:24:50;;;;;;;;;;;13.30;1.00;;;;;;10289722;28;85183;-47
2022/05/05 23:29:51;;;;;;;;;;;13.30;1.00;;;;;;10254604;28;85559;-52
2022/05/05 23:40:11;;;;;;;;;;;13.20;1.00;;;;;;10289984;28;84116;-48
2022/05/05 23:45:12;;;;;;;;;;;13.30;1.00;;;;;;10289341;28;84147;-49
2022/05/05 23:50:13;;;;;;;;;;;13.20;1.00;;;;;;10270210;28;85012;-48
2022/05/05 23:55:13;;;;;;;;;;;13.00;1.00;;;;;;10271590;28;84650;-48
